Time;durP1;ratioP1;P1;durP2;ratioP2;P2;SDS_P1;SDS_P2;PMS_P1;PMS_P2;Temp;Humidity;BMP_temperature;BMP_pressure;BME280_temperature;BME280_humidity;BME280_pressure;Samples;Min_cycle;Max_cycle;Signal;HPM_P1;HPM_P2
2024/01/07 00:02:06;;;;;;;22.98;12.73;;;;;;;6.11;100.00;91521.44;5063429;28;20044;-74
2024/01/07 00:04:34;;;;;;;25.40;13.45;;;;;;;6.09;100.00;91508.16;5059632;28;20045;-74
2024/01/07 00:07:02;;;;;;;29.95;14.23;;;;;;;6.17;100.00;91508.78;5066114;28;20106;-73
2024/01/07 00:09:29;;;;;;;26.00;13.55;;;;;;;6.11;100.00;91518.13;5066093;28;20409;-74
2024/01/07 00:11:56;;;;;;;18.45;10.68;;;;;;;6.11;100.00;91502.84;5064183;28;20052;-74
2024/01/07 00:14:23;;;;;;;20.25;11.60;;;;;;;6.15;100.00;91503.91;5062708;28;20059;-73
2024/01/07 00:16:50;;;;;;;21.45;11.05;;;;;;;6.32;100.00;91500.66;5065513;28;20053;-74
2024/01/07 00:19:20;;;;;;;18.30;10.77;;;;;;;6.33;100.00;91494.56;5059221;28;20091;-74
2024/01/07 00:21:47;;;;;;;21.67;11.45;;;;;;;6.20;100.00;91493.06;5062554;28;20052;-74
2024/01/07 00:24:16;;;;;;;16.48;10.50;;;;;;;6.11;100.00;91480.66;5066138;28;20052;-74
2024/01/07 00:26:43;;;;;;;16.95;10.23;;;;;;;6.23;100.00;91485.72;5061083;28;20052;-74
2024/01/07 00:29:10;;;;;;;18.58;10.55;;;;;;;6.17;100.00;91468.00;5063629;28;20765;-75
2024/01/07 00:31:36;;;;;;;19.95;11.70;;;;;;;6.24;100.00;91474.53;5062267;28;20050;-74
2024/01/07 00:34:03;;;;;;;28.98;15.88;;;;;;;6.26;100.00;91469.22;5063061;28;20631;-74
2024/01/07 00:36:30;;;;;;;27.50;14.90;;;;;;;6.22;100.00;91457.91;5063053;28;20056;-75
2024/01/07 00:38:57;;;;;;;22.40;13.32;;;;;;;6.21;100.00;91459.66;5065801;28;20040;-75
2024/01/07 00:41:25;;;;;;;22.88;14.48;;;;;;;6.34;100.00;91468.09;5066169;28;20044;-74
2024/01/07 00:43:53;;;;;;;23.65;11.98;;;;;;;6.18;100.00;91439.75;5058709;28;20043;-74
2024/01/07 00:46:27;;;;;;;22.45;11.52;;;;;;;6.33;100.00;91446.91;5063036;28;20061;-74
2024/01/07 00:48:54;;;;;;;19.73;11.13;;;;;;;6.24;100.00;91441.38;5064331;28;20051;-74
2024/01/07 00:51:21;;;;;;;19.75;11.85;;;;;;;6.27;100.00;91432.50;5070042;28;20049;-74
2024/01/07 00:53:47;;;;;;;21.70;14.18;;;;;;;6.24;100.00;91418.44;5065162;28;20040;-74
2024/01/07 00:56:15;;;;;;;23.25;13.48;;;;;;;6.34;100.00;91435.69;5061815;28;20080;-74
2024/01/07 00:58:43;;;;;;;25.80;15.85;;;;;;;6.41;100.00;91423.59;5065784;28;20048;-74
2024/01/07 01:01:10;;;;;;;22.58;13.73;;;;;;;6.30;100.00;91411.66;5069537;28;20761;-74
2024/01/07 01:03:37;;;;;;;24.42;14.23;;;;;;;6.42;100.00;91424.34;5065328;28;20051;-73
2024/01/07 01:06:05;;;;;;;21.17;12.57;;;;;;;6.45;100.00;91418.81;5066354;28;20048;-74
2024/01/07 01:08:32;;;;;;;19.55;11.70;;;;;;;6.37;100.00;91408.97;5068822;28;20049;-74
2024/01/07 01:10:59;;;;;;;17.55;9.20;;;;;;;6.39;100.00;91415.38;5064877;28;20049;-74
2024/01/07 01:13:25;;;;;;;15.38;9.50;;;;;;;6.39;100.00;91412.06;5061158;28;20059;-74
2024/01/07 01:15:55;;;;;;;13.95;7.93;;;;;;;6.44;100.00;91409.63;5066134;28;20494;-74
2024/01/07 01:18:22;;;;;;;13.18;7.70;;;;;;;6.42;100.00;91409.06;5067300;28;20048;-74
2024/01/07 01:20:49;;;;;;;14.50;7.97;;;;;;;6.39;100.00;91396.78;5067041;28;20066;-73
2024/01/07 01:23:16;;;;;;;36.72;17.35;;;;;;;6.39;100.00;91377.13;5063879;28;20105;-74
2024/01/07 01:25:43;;;;;;;19.95;10.50;;;;;;;6.41;100.00;91372.59;5069409;28;20163;-74
2024/01/07 01:28:10;;;;;;;23.08;11.60;;;;;;;6.41;100.00;91364.94;5068994;28;20051;-74
2024/01/07 01:30:37;;;;;;;14.32;8.65;;;;;;;6.39;100.00;91361.06;5062099;28;20045;-74
2024/01/07 01:33:06;;;;;;;24.65;11.63;;;;;;;6.40;100.00;91360.81;5064852;28;20042;-75
2024/01/07 01:35:33;;;;;;;27.23;13.63;;;;;;;6.23;100.00;91355.69;5065593;28;20043;-76
2024/01/07 01:38:00;;;;;;;44.95;19.83;;;;;;;6.07;100.00;91333.50;5066692;28;20128;-74
2024/01/07 01:40:26;;;;;;;26.15;13.82;;;;;;;6.13;100.00;91340.22;5064181;28;20049;-75
2024/01/07 01:42:53;;;;;;;46.08;19.77;;;;;;;6.16;100.00;91334.69;5066121;28;20056;-74
2024/01/07 01:45:20;;;;;;;31.92;17.30;;;;;;;6.13;100.00;91330.81;5068900;28;20049;-74
2024/01/07 01:47:48;;;;;;;29.02;15.35;;;;;;;6.07;100.00;91331.69;5060774;28;20044;-74
2024/01/07 01:50:18;;;;;;;33.88;16.05;;;;;;;6.05;100.00;91330.38;5063548;28;20050;-74
2024/01/07 01:52:45;;;;;;;28.15;15.60;;;;;;;6.00;100.00;91311.44;5065517;28;20040;-75
2024/01/07 01:55:13;;;;;;;45.95;24.42;;;;;;;5.96;100.00;91307.00;5065805;28;20048;-74
2024/01/07 01:57:41;;;;;;;39.67;21.52;;;;;;;6.01;100.00;91314.75;5066733;28;20532;-74
2024/01/07 02:00:09;;;;;;;34.15;18.20;;;;;;;5.99;100.00;91311.66;5063790;28;20053;-74
2024/01/07 02:02:36;;;;;;;40.75;21.60;;;;;;;5.87;100.00;91309.16;5067756;28;20047;-74
2024/01/07 02:05:03;;;;;;;19.50;12.02;;;;;;;5.82;100.00;91307.28;5068854;28;20044;-74
2024/01/07 02:07:32;;;;;;;23.30;12.68;;;;;;;5.91;100.00;91307.69;5061739;28;20053;-74
2024/01/07 02:09:59;;;;;;;25.70;14.15;;;;;;;5.86;100.00;91305.84;5068535;28;21510;-74
2024/01/07 02:12:26;;;;;;;46.40;21.50;;;;;;;5.85;100.00;91318.81;5066729;28;20055;-74
2024/01/07 02:14:53;;;;;;;17.15;9.60;;;;;;;5.84;100.00;91317.25;5063404;28;20132;-74
2024/01/07 02:17:20;;;;;;;13.65;7.65;;;;;;;5.85;100.00;91299.22;5068917;28;20044;-74
2024/01/07 02:19:47;;;;;;;17.77;10.00;;;;;;;5.85;100.00;91280.59;5061535;28;20051;-75
2024/01/07 02:22:14;;;;;;;14.52;8.50;;;;;;;5.88;100.00;91260.50;5065821;28;20048;-75
2024/01/07 02:24:43;;;;;;;13.40;6.85;;;;;;;5.89;100.00;91248.56;5064896;28;20040;-75
2024/01/07 02:27:09;;;;;;;16.58;9.10;;;;;;;5.87;100.00;91243.69;5063853;28;20169;-75
2024/01/07 02:29:37;;;;;;;25.45;12.57;;;;;;;5.93;100.00;91247.06;5063998;28;20044;-75
2024/01/07 02:32:04;;;;;;;51.70;22.30;;;;;;;5.92;100.00;91252.44;5067978;28;20048;-75
2024/01/07 02:34:31;;;;;;;21.70;11.05;;;;;;;5.87;100.00;91258.19;5067573;28;20044;-75
2024/01/07 02:36:58;;;;;;;22.15;12.15;;;;;;;5.78;100.00;91251.94;5063996;28;20048;-75
2024/01/07 02:39:25;;;;;;;22.20;10.55;;;;;;;5.72;100.00;91246.75;5063160;28;20055;-74
2024/01/07 02:41:53;;;;;;;20.65;11.05;;;;;;;5.76;100.00;91239.41;5063171;28;20418;-74
2024/01/07 02:44:20;;;;;;;18.10;9.38;;;;;;;5.75;100.00;91251.38;5064050;28;20624;-74
2024/01/07 02:46:47;;;;;;;18.70;9.18;;;;;;;5.80;100.00;91260.91;5061398;28;20126;-74
2024/01/07 02:49:14;;;;;;;14.48;8.63;;;;;;;5.73;100.00;91255.94;5066075;28;20048;-74
2024/01/07 02:51:41;;;;;;;17.52;9.38;;;;;;;5.74;100.00;91284.75;5060256;28;20063;-75
2024/01/07 02:54:08;;;;;;;13.43;7.47;;;;;;;5.72;100.00;91300.25;5065893;28;20044;-75
2024/01/07 02:56:34;;;;;;;12.93;6.60;;;;;;;5.72;100.00;91299.47;5067455;28;20413;-75
2024/01/07 02:59:03;;;;;;;17.38;10.10;;;;;;;5.81;100.00;91312.63;5066335;28;20562;-75
2024/01/07 03:01:30;;;;;;;17.63;9.20;;;;;;;5.87;100.00;91316.78;5064976;28;20098;-75
2024/01/07 03:03:57;;;;;;;11.32;7.40;;;;;;;5.99;100.00;91325.19;5067017;28;20058;-75
2024/01/07 03:06:27;;;;;;;13.13;7.50;;;;;;;6.10;100.00;91331.25;5066985;28;20048;-75
2024/01/07 03:08:54;;;;;;;27.83;15.13;;;;;;;5.81;100.00;91302.41;5067034;28;20088;-75
2024/01/07 03:11:22;;;;;;;16.40;8.80;;;;;;;6.09;100.00;91342.47;5065840;28;20133;-75
2024/01/07 03:13:48;;;;;;;46.72;22.88;;;;;;;6.18;100.00;91350.50;5061976;28;20759;-75
2024/01/07 03:16:21;;;;;;;103.25;48.42;;;;;;;6.25;100.00;91345.28;5066903;28;20044;-75
2024/01/07 03:18:48;;;;;;;74.63;40.28;;;;;;;6.21;100.00;91349.28;5065123;28;20056;-73
2024/01/07 03:21:19;;;;;;;70.07;28.08;;;;;;;6.56;100.00;91345.78;5063434;28;20048;-74
2024/01/07 03:23:46;;;;;;;62.15;29.98;;;;;;;6.39;100.00;91348.31;5066960;28;20052;-73
2024/01/07 03:26:14;;;;;;;104.13;45.10;;;;;;;6.48;100.00;91346.91;5066722;28;20051;-74
2024/01/07 03:28:41;;;;;;;11.93;7.20;;;;;;;6.51;100.00;91349.03;5064158;28;20059;-73
2024/01/07 03:31:10;;;;;;;24.05;9.30;;;;;;;6.68;100.00;91348.25;5064858;28;20044;-73
2024/01/07 03:33:39;;;;;;;31.38;15.43;;;;;;;6.71;100.00;91334.28;5065045;28;20049;-74
2024/01/07 03:36:09;;;;;;;8.05;5.40;;;;;;;6.78;100.00;91330.56;5064570;28;20047;-73
2024/01/07 03:38:36;;;;;;;8.10;4.50;;;;;;;6.78;100.00;91327.22;5055970;28;20498;-74
2024/01/07 03:41:03;;;;;;;7.90;4.78;;;;;;;6.82;100.00;91316.31;5067023;28;20036;-74
2024/01/07 03:43:30;;;;;;;6.75;4.57;;;;;;;6.83;100.00;91319.63;5062444;28;20055;-73
2024/01/07 03:45:57;;;;;;;9.13;4.63;;;;;;;6.90;100.00;91317.69;5063600;28;20383;-74
2024/01/07 03:48:24;;;;;;;25.42;11.68;;;;;;;6.85;100.00;91307.41;5066178;28;20048;-74
2024/01/07 03:50:52;;;;;;;5.47;3.65;;;;;;;6.97;100.00;91309.09;5066806;28;20500;-74
2024/01/07 03:53:19;;;;;;;8.30;4.63;;;;;;;6.99;100.00;91305.31;5057168;28;20046;-73
2024/01/07 03:55:46;;;;;;;32.50;15.50;;;;;;;7.08;100.00;91300.56;5066798;28;20413;-74
2024/01/07 03:58:13;;;;;;;10.80;6.03;;;;;;;7.11;100.00;91289.13;5058920;28;20055;-74
2024/01/07 04:00:40;;;;;;;4.70;3.35;;;;;;;7.20;100.00;91274.94;5065168;28;20074;-73
2024/01/07 04:03:07;;;;;;;6.65;4.22;;;;;;;7.22;100.00;91273.69;5064388;28;20053;-73
2024/01/07 04:05:34;;;;;;;9.27;5.57;;;;;;;7.22;100.00;91255.81;5061726;28;20095;-74
2024/01/07 04:08:02;;;;;;;26.05;13.25;;;;;;;7.35;100.00;91253.91;5065724;28;20473;-74
2024/01/07 04:10:29;;;;;;;7.20;4.50;;;;;;;7.35;100.00;91244.47;5063646;28;20436;-73
2024/01/07 04:12:56;;;;;;;17.83;8.82;;;;;;;7.36;100.00;91245.25;5061563;28;20059;-74
2024/01/07 04:15:25;;;;;;;8.05;4.47;;;;;;;7.42;100.00;91235.88;5066358;28;20041;-74
2024/01/07 04:17:52;;;;;;;5.43;3.13;;;;;;;7.42;100.00;91234.09;5057935;28;20066;-74
2024/01/07 04:20:19;;;;;;;19.63;9.68;;;;;;;7.46;100.00;91224.91;5065929;28;20067;-74
2024/01/07 04:22:46;;;;;;;33.97;16.23;;;;;;;7.52;100.00;91237.75;5063467;28;20040;-74
2024/01/07 04:25:14;;;;;;;21.38;10.57;;;;;;;7.58;100.00;91240.13;5062619;28;20495;-73
2024/01/07 04:27:41;;;;;;;20.50;11.45;;;;;;;7.57;100.00;91242.91;5061338;28;20098;-73
2024/01/07 04:30:09;;;;;;;36.47;20.92;;;;;;;7.61;100.00;91249.88;5063028;28;20411;-73
2024/01/07 04:32:36;;;;;;;22.60;15.15;;;;;;;7.58;100.00;91237.56;5062395;28;20501;-73
2024/01/07 04:35:02;;;;;;;19.20;11.20;;;;;;;7.62;100.00;91245.53;5064413;28;20052;-73
2024/01/07 04:37:29;;;;;;;11.77;5.72;;;;;;;7.53;100.00;91231.63;5057044;28;20048;-74
2024/01/07 04:39:56;;;;;;;10.25;5.70;;;;;;;7.50;100.00;91222.66;5062468;28;20048;-73
2024/01/07 04:42:25;;;;;;;11.68;7.22;;;;;;;7.47;100.00;91215.50;5055280;28;20048;-74
2024/01/07 04:44:52;;;;;;;13.52;7.68;;;;;;;7.57;100.00;91235.25;5060488;28;20049;-74
2024/01/07 04:47:27;;;;;;;9.30;5.50;;;;;;;7.60;100.00;91227.13;5060282;28;20409;-74
2024/01/07 04:49:54;;;;;;;8.65;4.65;;;;;;;7.53;100.00;91218.84;5062905;28;20079;-74
2024/01/07 04:52:21;;;;;;;6.47;4.72;;;;;;;7.50;100.00;91220.09;5062926;28;20048;-74
2024/01/07 04:54:47;;;;;;;7.20;5.00;;;;;;;7.52;100.00;91230.88;5057089;28;20051;-74
2024/01/07 04:57:14;;;;;;;11.68;5.25;;;;;;;7.49;100.00;91237.22;5060515;28;20056;-74
2024/01/07 04:59:43;;;;;;;9.73;5.72;;;;;;;7.54;100.00;91246.72;5064884;28;20049;-74
2024/01/07 05:02:10;;;;;;;6.80;5.05;;;;;;;7.49;100.00;91257.66;5065301;28;20116;-74
2024/01/07 05:04:37;;;;;;;10.20;6.47;;;;;;;7.49;100.00;91264.53;5059359;28;20044;-74
2024/01/07 05:07:04;;;;;;;9.70;6.00;;;;;;;7.51;100.00;91261.75;5066113;28;20067;-74
2024/01/07 05:09:33;;;;;;;11.98;6.90;;;;;;;7.56;100.00;91251.59;5065348;28;20062;-74
2024/01/07 05:12:00;;;;;;;10.80;7.25;;;;;;;7.55;100.00;91247.50;5060207;28;20432;-74
2024/01/07 05:14:27;;;;;;;16.17;9.80;;;;;;;7.56;100.00;91243.94;5063418;28;20058;-74
2024/01/07 05:16:56;;;;;;;16.48;8.50;;;;;;;7.60;100.00;91243.22;5065626;28;20051;-74
2024/01/07 05:19:23;;;;;;;9.10;5.75;;;;;;;7.60;100.00;91239.91;5065284;28;20460;-73
2024/01/07 05:21:50;;;;;;;11.15;5.90;;;;;;;7.46;100.00;91242.81;5061922;28;20056;-72
2024/01/07 05:24:17;;;;;;;11.15;5.30;;;;;;;7.47;100.00;91241.03;5065930;28;20187;-73
2024/01/07 05:26:45;;;;;;;11.65;7.43;;;;;;;7.55;100.00;91238.03;5061951;28;20056;-73
2024/01/07 05:29:12;;;;;;;5.68;4.40;;;;;;;7.54;100.00;91241.63;5061133;28;21704;-73
2024/01/07 05:31:39;;;;;;;6.22;3.47;;;;;;;7.53;100.00;91229.06;5063317;28;20078;-73
2024/01/07 05:34:08;;;;;;;7.25;1.73;;;;;;;7.63;100.00;91239.41;5060893;28;20147;-73
2024/01/07 05:36:35;;;;;;;3.97;2.20;;;;;;;7.47;100.00;91216.28;5065968;28;20041;-73
2024/01/07 05:39:02;;;;;;;3.83;2.38;;;;;;;7.57;100.00;91232.69;5064558;28;20059;-73
2024/01/07 05:41:29;;;;;;;3.58;2.20;;;;;;;7.47;100.00;91223.16;5069217;28;20048;-73
2024/01/07 05:43:56;;;;;;;4.20;2.53;;;;;;;7.47;100.00;91226.50;5066878;28;20048;-73
2024/01/07 05:46:23;;;;;;;4.75;2.97;;;;;;;7.54;100.00;91230.63;5066498;28;20487;-73
2024/01/07 05:48:50;;;;;;;7.85;3.40;;;;;;;7.49;100.00;91221.13;5065381;28;20131;-73
2024/01/07 05:51:19;;;;;;;5.72;2.55;;;;;;;7.57;100.00;91217.38;5064247;28;20127;-73
2024/01/07 05:53:46;;;;;;;3.65;2.40;;;;;;;7.47;100.00;91200.16;5065879;28;20413;-73
2024/01/07 05:56:13;;;;;;;5.63;3.08;;;;;;;7.39;100.00;91205.69;5068396;28;20070;-73
2024/01/07 05:58:40;;;;;;;6.60;2.80;;;;;;;7.31;100.00;91205.09;5068455;28;20082;-73
2024/01/07 06:01:09;;;;;;;5.32;2.63;;;;;;;7.35;100.00;91224.06;5068672;28;20465;-73
2024/01/07 06:03:35;;;;;;;3.95;2.22;;;;;;;7.34;100.00;91224.28;5064000;28;20060;-73
2024/01/07 06:06:02;;;;;;;4.13;1.70;;;;;;;7.29;100.00;91201.25;5066127;28;20056;-73
2024/01/07 06:08:31;;;;;;;3.00;1.40;;;;;;;7.39;100.00;91210.78;5065746;28;20041;-74
2024/01/07 06:10:58;;;;;;;4.38;2.15;;;;;;;7.34;100.00;91208.97;5061524;28;20047;-74
2024/01/07 06:13:24;;;;;;;6.72;2.58;;;;;;;7.30;100.00;91211.22;5065773;28;20052;-74
2024/01/07 06:15:52;;;;;;;6.65;3.25;;;;;;;7.26;100.00;91206.84;5065224;28;20055;-74
2024/01/07 06:18:20;;;;;;;6.38;3.00;;;;;;;7.27;100.00;91216.78;5067527;28;20080;-74
2024/01/07 06:20:47;;;;;;;8.77;3.88;;;;;;;7.09;100.00;91197.47;5068161;28;20056;-74
2024/01/07 06:23:14;;;;;;;6.70;3.78;;;;;;;7.36;100.00;91229.91;5065954;28;20057;-74
2024/01/07 06:25:43;;;;;;;5.47;1.85;;;;;;;7.39;100.00;91234.56;5065867;28;20054;-74
2024/01/07 06:28:10;;;;;;;3.22;1.38;;;;;;;7.32;100.00;91233.97;5065795;28;20053;-73
2024/01/07 06:30:37;;;;;;;6.10;1.42;;;;;;;7.37;100.00;91246.03;5068399;28;20048;-73
2024/01/07 06:33:05;;;;;;;4.60;1.10;;;;;;;7.40;100.00;91255.78;5067111;28;20483;-73
2024/01/07 06:35:32;;;;;;;2.85;1.35;;;;;;;7.41;100.00;91263.19;5065986;28;20055;-73
2024/01/07 06:37:59;;;;;;;1.85;1.10;;;;;;;7.35;100.00;91243.69;5067117;28;20562;-73
2024/01/07 06:40:26;;;;;;;3.25;1.30;;;;;;;7.42;100.00;91262.19;5065513;28;20062;-74
2024/01/07 06:42:54;;;;;;;2.58;1.58;;;;;;;7.54;100.00;91264.59;5061611;28;20494;-74
2024/01/07 06:45:21;;;;;;;2.65;1.67;;;;;;;7.48;100.00;91268.91;5060169;28;20516;-73
2024/01/07 06:47:48;;;;;;;2.75;1.40;;;;;;;7.40;100.00;91266.00;5061252;28;20059;-73
2024/01/07 06:50:16;;;;;;;2.72;1.10;;;;;;;7.47;100.00;91271.69;5061413;28;20044;-73
2024/01/07 06:52:42;;;;;;;2.70;1.17;;;;;;;7.49;100.00;91269.66;5061280;28;20048;-73
2024/01/07 06:55:09;;;;;;;4.43;1.95;;;;;;;7.57;100.00;91279.47;5065717;28;20045;-73
2024/01/07 06:57:36;;;;;;;16.90;8.95;;;;;;;7.46;100.00;91265.78;5054918;28;20929;-73
2024/01/07 07:00:07;;;;;;;23.83;11.10;;;;;;;7.55;100.00;91278.91;5056860;28;20052;-72
2024/01/07 07:02:34;;;;;;;22.88;9.23;;;;;;;7.57;100.00;91276.13;5051692;28;20052;-73
2024/01/07 07:05:01;;;;;;;40.35;15.38;;;;;;;7.52;100.00;91279.41;5048118;28;20052;-73
2024/01/07 07:07:28;;;;;;;88.90;35.13;;;;;;;7.47;100.00;91262.25;5050106;28;20052;-73
2024/01/07 07:09:55;;;;;;;122.10;43.10;;;;;;;7.48;100.00;91263.78;5050980;28;20066;-73
2024/01/07 07:12:22;;;;;;;189.38;62.13;;;;;;;7.42;100.00;91253.75;5055989;28;20049;-73
2024/01/07 07:14:49;;;;;;;178.57;55.22;;;;;;;7.54;100.00;91264.59;5050456;28;20498;-73
2024/01/07 07:17:17;;;;;;;110.13;38.22;;;;;;;7.53;100.00;91265.63;5054293;28;20067;-73
2024/01/07 07:19:44;;;;;;;113.95;43.60;;;;;;;7.57;100.00;91276.13;5053128;28;20051;-73
2024/01/07 07:22:11;;;;;;;97.72;35.22;;;;;;;7.57;100.00;91268.47;5052784;28;20517;-73
2024/01/07 07:24:42;;;;;;;49.90;19.88;;;;;;;7.67;100.00;91263.47;5056810;28;20391;-73
2024/01/07 07:27:11;;;;;;;54.95;23.70;;;;;;;7.62;100.00;91261.66;5049166;28;20051;-73
2024/01/07 07:29:38;;;;;;;70.72;30.00;;;;;;;7.65;100.00;91272.38;5051738;28;20049;-73
2024/01/07 07:32:06;;;;;;;24.45;10.25;;;;;;;7.71;100.00;91263.75;5052676;28;20045;-73
2024/01/07 07:34:35;;;;;;;18.35;8.43;;;;;;;7.75;100.00;91252.06;5060855;28;20473;-73
2024/01/07 07:37:02;;;;;;;23.95;11.27;;;;;;;7.75;100.00;91254.59;5052643;28;20494;-73
2024/01/07 07:39:29;;;;;;;19.13;9.77;;;;;;;7.82;100.00;91223.75;5051393;28;20132;-73
2024/01/07 07:41:55;;;;;;;26.02;12.35;;;;;;;7.83;100.00;91217.63;5050477;28;20057;-73
2024/01/07 07:44:22;;;;;;;25.15;12.20;;;;;;;7.99;100.00;91224.41;5050712;28;20131;-73
2024/01/07 07:46:50;;;;;;;15.18;7.93;;;;;;;8.01;100.00;91206.28;5059905;28;20045;-73
2024/01/07 07:49:17;;;;;;;23.30;11.30;;;;;;;8.08;100.00;91224.75;5050551;28;20134;-73
2024/01/07 07:51:46;;;;;;;18.38;8.93;;;;;;;8.15;100.00;91222.75;5052017;28;20071;-73
2024/01/07 07:54:12;;;;;;;11.25;6.57;;;;;;;8.10;100.00;91219.41;5058960;28;20049;-72
2024/01/07 07:56:39;;;;;;;22.05;9.80;;;;;;;8.16;100.00;91224.28;5052359;28;20040;-73
2024/01/07 07:59:07;;;;;;;21.67;8.95;;;;;;;8.09;100.00;91218.59;5053306;28;20041;-74
2024/01/07 08:01:34;;;;;;;24.63;10.27;;;;;;;8.25;100.00;91219.50;5052059;28;20060;-73
2024/01/07 08:04:00;;;;;;;23.63;10.18;;;;;;;8.34;100.00;91222.38;5050384;28;20906;-73
2024/01/07 08:06:27;;;;;;;42.08;17.75;;;;;;;8.39;100.00;91224.97;5048862;28;20049;-73
2024/01/07 08:08:55;;;;;;;44.35;16.88;;;;;;;8.37;100.00;91224.44;5050609;28;20063;-72
2024/01/07 08:11:22;;;;;;;24.52;8.80;;;;;;;8.26;100.00;91225.38;5052941;28;20048;-73
2024/01/07 08:13:49;;;;;;;21.25;10.68;;;;;;;8.31;100.00;91222.88;5051134;28;20403;-73
2024/01/07 08:16:16;;;;;;;13.23;6.55;;;;;;;8.29;100.00;91237.69;5060361;28;20045;-73
2024/01/07 08:18:43;;;;;;;16.02;7.63;;;;;;;8.20;100.00;91213.59;5051199;28;20072;-72
2024/01/07 08:21:10;;;;;;;13.35;5.78;;;;;;;8.32;100.00;91223.66;5054850;28;20409;-73
2024/01/07 08:23:37;;;;;;;46.13;17.98;;;;;;;8.29;100.00;91212.88;5057473;28;20048;-73
2024/01/07 08:26:05;;;;;;;17.15;7.05;;;;;;;8.42;100.00;91227.03;5052099;28;20053;-73
2024/01/07 08:28:32;;;;;;;9.82;3.28;;;;;;;8.40;100.00;91223.19;5050173;28;20057;-73
2024/01/07 08:30:59;;;;;;;8.25;2.97;;;;;;;8.33;100.00;91208.03;5062545;28;20417;-73
2024/01/07 08:33:26;;;;;;;5.68;2.83;;;;;;;8.46;100.00;91211.97;5049977;28;20055;-73
2024/01/07 08:35:53;;;;;;;14.00;4.72;;;;;;;8.51;100.00;91213.78;5048777;28;20040;-74
2024/01/07 08:38:20;;;;;;;27.42;8.68;;;;;;;8.60;100.00;91219.28;5050564;28;20437;-73
2024/01/07 08:40:47;;;;;;;16.75;6.13;;;;;;;8.62;100.00;91223.13;5050809;28;20057;-73
2024/01/07 08:43:15;;;;;;;15.98;7.68;;;;;;;8.72;100.00;91221.63;5051192;28;20049;-73
2024/01/07 08:45:42;;;;;;;13.98;6.38;;;;;;;8.81;100.00;91212.47;5049116;28;20047;-73
2024/01/07 08:48:09;;;;;;;34.15;18.60;;;;;;;8.97;100.00;91213.31;5047964;28;20041;-74
2024/01/07 08:50:36;;;;;;;15.77;5.88;;;;;;;9.09;100.00;91210.56;5049472;28;20048;-73
2024/01/07 08:53:03;;;;;;;15.15;7.35;;;;;;;9.18;100.00;91213.41;5049430;28;20080;-73
2024/01/07 08:55:31;;;;;;;10.52;4.82;;;;;;;9.29;100.00;91209.88;5048479;28;20055;-72
2024/01/07 08:57:58;;;;;;;13.45;5.00;;;;;;;9.53;100.00;91211.22;5049336;28;20052;-73
2024/01/07 09:00:31;;;;;;;10.45;4.30;;;;;;;9.72;100.00;91221.78;5048732;28;20048;-74
2024/01/07 09:02:57;;;;;;;16.58;7.45;;;;;;;9.84;100.00;91208.72;5048379;28;20095;-73
2024/01/07 09:05:25;;;;;;;22.50;10.48;;;;;;;10.22;100.00;91218.75;5049965;28;20502;-73
2024/01/07 09:07:52;;;;;;;14.68;6.72;;;;;;;10.04;100.00;91187.44;5048107;28;20057;-73
2024/01/07 09:10:19;;;;;;;25.20;9.57;;;;;;;10.37;100.00;91215.44;5050068;28;20060;-73
2024/01/07 09:12:46;;;;;;;9.77;4.60;;;;;;;10.55;100.00;91224.41;5053464;28;20048;-73
2024/01/07 09:15:12;;;;;;;7.95;4.18;;;;;;;10.48;100.00;91222.13;5055054;28;20601;-73
2024/01/07 09:17:41;;;;;;;48.08;26.85;;;;;;;10.59;100.00;91225.44;5052354;28;20045;-73
2024/01/07 09:20:11;;;;;;;18.55;6.78;;;;;;;10.71;100.00;91229.53;5053884;28;20048;-73
2024/01/07 09:22:38;;;;;;;9.52;3.10;;;;;;;10.72;100.00;91226.72;5053315;28;20052;-73
2024/01/07 09:25:06;;;;;;;38.42;16.38;;;;;;;10.80;100.00;91220.28;5052559;28;20048;-73
2024/01/07 09:27:34;;;;;;;44.47;18.33;;;;;;;10.74;99.50;91234.91;5062550;28;20051;-73
2024/01/07 09:30:01;;;;;;;7.30;2.55;;;;;;;10.52;97.07;91228.25;5054320;28;20064;-72
2024/01/07 09:32:28;;;;;;;62.42;27.92;;;;;;;10.56;98.32;91242.13;5055977;28;20490;-73
2024/01/07 09:34:57;;;;;;;61.65;26.90;;;;;;;10.48;97.31;91241.88;5051371;28;20413;-73
2024/01/07 09:37:25;;;;;;;91.70;41.97;;;;;;;10.28;98.05;91244.16;5051999;28;20047;-73
2024/01/07 09:39:52;;;;;;;42.33;19.38;;;;;;;10.16;98.64;91241.84;5058972;28;20048;-73
2024/01/07 09:42:20;;;;;;;7.75;2.40;;;;;;;9.78;99.59;91222.56;5056181;28;20048;-72
2024/01/07 09:44:47;;;;;;;60.83;31.33;;;;;;;10.04;99.35;91238.75;5052476;28;20409;-72
2024/01/07 09:47:16;;;;;;;12.48;4.80;;;;;;;9.94;100.00;91226.69;5054228;28;20054;-72
2024/01/07 09:49:43;;;;;;;21.42;9.77;;;;;;;10.01;100.00;91240.03;5051530;28;20052;-72
2024/01/07 09:52:12;;;;;;;6.90;2.47;;;;;;;9.94;100.00;91239.50;5062715;28;20048;-72
2024/01/07 09:54:41;;;;;;;16.10;5.75;;;;;;;9.96;100.00;91231.56;5059040;28;20163;-72
2024/01/07 09:57:10;;;;;;;11.23;4.13;;;;;;;9.88;100.00;91233.63;5053556;28;20553;-72
2024/01/07 09:59:39;;;;;;;15.60;7.85;;;;;;;10.02;100.00;91227.97;5054749;28;20438;-72
2024/01/07 10:02:06;;;;;;;13.45;7.05;;;;;;;9.94;100.00;91231.81;5054851;28;20567;-72
2024/01/07 10:04:33;;;;;;;8.20;2.05;;;;;;;9.91;99.33;91240.03;5055431;28;20498;-72
2024/01/07 10:07:00;;;;;;;6.70;2.67;;;;;;;9.93;98.48;91227.72;5050426;28;20045;-72
2024/01/07 10:09:33;;;;;;;8.00;2.97;;;;;;;10.05;98.89;91222.34;5050167;28;20057;-72
2024/01/07 10:12:00;;;;;;;10.77;4.30;;;;;;;10.07;99.91;91209.25;5059816;28;20051;-72
2024/01/07 10:14:27;;;;;;;14.07;6.70;;;;;;;10.19;99.79;91217.47;5051000;28;20054;-72
2024/01/07 10:16:54;;;;;;;6.13;1.77;;;;;;;10.38;98.21;91204.13;5051460;28;20072;-72
2024/01/07 10:19:23;;;;;;;8.02;5.10;;;;;;;10.55;95.34;91193.59;5049567;28;20071;-72
2024/01/07 10:22:01;;;;;;;3.75;1.17;;;;;;;10.42;93.28;91177.69;5049526;28;20048;-72
2024/01/07 10:24:39;;;;;;;4.95;2.03;;;;;;;10.76;92.58;91196.16;5050134;28;20052;-72
2024/01/07 10:27:06;;;;;;;32.63;17.13;;;;;;;10.82;93.13;91198.44;5050159;28;21017;-73
2024/01/07 10:29:34;;;;;;;46.05;23.33;;;;;;;10.69;91.68;91186.91;5052725;28;20424;-72
2024/01/07 10:32:03;;;;;;;13.57;6.60;;;;;;;10.66;91.63;91187.41;5049631;28;20041;-73
2024/01/07 10:34:31;;;;;;;65.82;30.88;;;;;;;10.74;91.88;91167.41;5049996;28;20056;-72
2024/01/07 10:37:01;;;;;;;81.78;34.90;;;;;;;10.68;92.47;91166.63;5054464;28;20080;-72
2024/01/07 10:39:28;;;;;;;10.27;4.20;;;;;;;10.63;92.50;91180.25;5051443;28;20053;-72
2024/01/07 10:41:58;;;;;;;35.08;15.68;;;;;;;10.72;92.10;91180.50;5049410;28;20583;-72
2024/01/07 10:44:27;;;;;;;15.40;6.82;;;;;;;10.69;91.51;91179.22;5055054;28;20048;-72
2024/01/07 10:46:55;;;;;;;48.78;22.30;;;;;;;10.64;91.43;91168.94;5050424;28;20510;-72
2024/01/07 10:49:24;;;;;;;34.85;14.48;;;;;;;10.85;92.59;91166.34;5054223;28;20070;-72
2024/01/07 10:52:04;;;;;;;6.10;3.20;;;;;;;10.90;92.12;91179.16;5049750;28;20072;-72
2024/01/07 10:54:33;;;;;;;11.35;5.82;;;;;;;10.84;91.82;91162.25;5061009;28;20531;-72
2024/01/07 10:57:08;;;;;;;6.97;2.38;;;;;;;10.82;91.95;91172.75;5054981;28;20041;-72
2024/01/07 10:59:37;;;;;;;10.55;4.13;;;;;;;10.90;91.28;91168.91;5060157;28;20048;-72
2024/01/07 11:02:04;;;;;;;9.43;3.50;;;;;;;10.84;90.50;91162.25;5051429;28;20052;-72
2024/01/07 11:04:42;;;;;;;7.93;2.03;;;;;;;10.92;91.38;91163.50;5050322;28;20863;-72
2024/01/07 11:07:18;;;;;;;12.75;3.75;;;;;;;11.05;91.74;91154.44;5051480;28;20045;-72
2024/01/07 11:09:52;;;;;;;;;;;;;;;11.10;91.44;91162.13;5051201;28;20070;-72
2024/01/07 11:12:21;;;;;;;;;;;;;;;11.09;90.19;91161.38;5056054;28;19924;-72
2024/01/07 11:14:52;;;;;;;;;;;;;;;11.17;91.11;91161.84;5055564;28;19924;-72
2024/01/07 11:17:40;;;;;;;;;;;;;;;11.16;90.05;91155.94;5055294;28;20438;-72
2024/01/07 11:20:08;;;;;;;;;;;;;;;11.03;89.57;91156.50;5053336;28;19931;-72
2024/01/07 11:22:35;;;;;;;;;;;;;;;10.93;90.49;91152.94;5053899;28;19920;-72
2024/01/07 11:25:02;;;;;;;;;;;;;;;10.82;91.70;91154.00;5051075;28;19931;-72
2024/01/07 11:27:32;;;;;;;;;;;;;;;10.87;91.51;91156.56;5054885;28;20777;-72
2024/01/07 11:29:59;;;;;;;;;;;;;;;10.86;91.54;91157.59;5055210;28;20500;-72